createdAt,value
2019-03-02T00:01:36.622Z,101595.15
2019-03-02T00:04:09.581Z,101597.80
2019-03-02T00:06:35.717Z,101587.34
2019-03-02T00:09:04.087Z,101594.72
2019-03-02T00:11:31.301Z,101584.27
2019-03-02T00:13:58.644Z,101582.95
2019-03-02T00:16:25.866Z,101585.57
2019-03-02T00:18:53.080Z,101579.03
2019-03-02T00:21:20.338Z,101579.03
2019-03-02T00:23:50.869Z,101586.00
2019-03-02T00:26:16.705Z,101586.00
2019-03-02T00:28:43.937Z,101580.38
2019-03-02T00:31:11.161Z,101580.38
2019-03-02T00:33:38.475Z,101574.27
2019-03-02T00:36:05.658Z,101575.15
2019-03-02T00:38:32.875Z,101569.45
2019-03-02T00:41:00.122Z,101575.11
2019-03-02T00:43:28.039Z,101570.34
2019-03-02T00:45:57.328Z,101570.34
2019-03-02T00:48:24.476Z,101575.58
2019-03-02T00:50:51.691Z,101575.58
2019-03-02T00:53:54.653Z,101578.61
2019-03-02T00:56:21.888Z,101569.03
2019-03-02T00:58:49.113Z,101569.03
2019-03-02T01:01:16.431Z,101571.22
2019-03-02T01:03:43.616Z,101559.03
2019-03-02T01:06:12.604Z,101559.03
2019-03-02T01:08:39.933Z,101564.22
2019-03-02T01:11:07.190Z,101562.48
2019-03-02T01:13:34.442Z,101558.99
2019-03-02T01:16:01.675Z,101558.14
2019-03-02T01:18:28.869Z,101545.54
2019-03-02T01:20:56.070Z,101559.50
2019-03-02T01:23:23.742Z,101559.50
2019-03-02T01:25:52.567Z,101555.11
2019-03-02T01:28:19.742Z,101550.77
2019-03-02T01:30:46.949Z,101546.84
2019-03-02T01:33:14.211Z,101546.84
2019-03-02T01:35:41.427Z,101549.00
2019-03-02T01:38:08.714Z,101540.73
2019-03-02T01:40:37.896Z,101549.88
2019-03-02T01:43:05.757Z,101541.62
2019-03-02T01:45:33.166Z,101541.62
2019-03-02T01:48:00.441Z,101539.42
2019-03-02T01:50:27.709Z,101539.42
2019-03-02T01:52:54.872Z,101537.69
2019-03-02T01:55:22.301Z,101530.27
2019-03-02T01:57:52.340Z,101530.27
2019-03-02T02:00:22.560Z,101528.97
2019-03-02T02:02:49.756Z,101530.27
2019-03-02T02:05:17.022Z,101522.88
2019-03-02T02:07:44.211Z,101520.28
2019-03-02T02:10:11.854Z,101520.28
2019-03-02T02:12:39.094Z,101518.96
2019-03-02T02:15:08.694Z,101514.58
2019-03-02T02:17:35.896Z,101504.58
2019-03-02T02:20:03.191Z,101504.58
2019-03-02T02:22:30.464Z,101508.03
2019-03-02T02:25:00.487Z,101504.53
2019-03-02T02:27:26.883Z,101504.53
2019-03-02T02:29:54.087Z,101505.41
2019-03-02T02:32:24.030Z,101496.27
2019-03-02T02:34:50.603Z,101496.27
2019-03-02T02:37:17.812Z,101497.58
2019-03-02T02:39:44.985Z,101493.23
2019-03-02T02:42:12.284Z,101495.42
2019-03-02T02:44:39.501Z,101495.42
2019-03-02T02:47:11.612Z,101493.66
2019-03-02T02:49:35.922Z,101493.66
2019-03-02T02:52:03.191Z,101481.45
2019-03-02T02:54:30.377Z,101481.45
2019-03-02T02:56:58.746Z,101479.27
2019-03-02T02:59:26.727Z,101481.03
2019-03-02T03:01:53.928Z,101481.04
2019-03-02T03:04:21.230Z,101482.78
2019-03-02T03:06:48.431Z,101481.47
2019-03-02T03:09:25.657Z,101481.47
2019-03-02T03:11:52.829Z,101480.16
2019-03-02T03:14:21.534Z,101471.42
2019-03-02T03:16:49.464Z,101471.42
2019-03-02T03:19:17.936Z,101481.04
2019-03-02T03:21:45.164Z,101475.39
2019-03-02T03:24:12.376Z,101474.92
2019-03-02T03:26:39.621Z,101469.27
2019-03-02T03:29:09.854Z,101469.27
2019-03-02T03:31:36.042Z,101470.16
2019-03-02T03:34:03.248Z,101466.66
2019-03-02T03:36:34.070Z,101464.93
2019-03-02T03:39:02.757Z,101464.93
2019-03-02T03:41:28.723Z,101466.66
2019-03-02T03:43:55.938Z,101461.42
2019-03-02T03:46:23.895Z,101461.42
2019-03-02T03:48:56.201Z,101443.55
2019-03-02T03:51:20.369Z,101443.55
2019-03-02T03:53:47.567Z,101458.81
2019-03-02T03:56:14.820Z,101458.81
2019-03-02T03:58:41.997Z,101460.59
2019-03-02T04:01:17.091Z,101460.59
2019-03-02T04:03:38.352Z,101463.63
2019-03-02T04:06:05.589Z,101465.82
2019-03-02T04:08:32.804Z,101464.52
2019-03-02T04:11:04.691Z,101460.59
2019-03-02T04:13:29.226Z,101465.41
2019-03-02T04:15:56.664Z,101464.53
2019-03-02T04:18:58.852Z,101470.22
2019-03-02T04:21:37.540Z,101472.38
2019-03-02T04:24:04.837Z,101470.64
2019-03-02T04:26:36.855Z,101479.36
2019-03-02T04:29:08.872Z,101468.45
2019-03-02T04:31:30.637Z,101466.71
2019-03-02T04:33:57.920Z,101464.05
2019-03-02T04:36:25.222Z,101461.42
2019-03-02T04:38:52.412Z,101461.42
2019-03-02T04:41:19.661Z,101458.33
2019-03-02T04:43:46.891Z,101462.68
2019-03-02T04:46:15.422Z,101461.80
2019-03-02T04:48:43.243Z,101461.80
2019-03-02T04:51:10.470Z,101460.06
2019-03-02T04:53:37.654Z,101471.36
2019-03-02T04:56:04.872Z,101467.44
2019-03-02T04:58:32.067Z,101467.44
2019-03-02T05:00:59.298Z,101465.70
2019-03-02T05:03:26.521Z,101478.31
2019-03-02T05:05:53.715Z,101481.81
2019-03-02T05:08:20.913Z,101472.23
2019-03-02T05:10:48.182Z,101467.84
2019-03-02T05:13:15.361Z,101473.06
2019-03-02T05:15:42.787Z,101474.37
2019-03-02T05:18:10.013Z,101472.17
2019-03-02T05:20:37.753Z,101469.98
2019-03-02T05:23:06.455Z,101469.98
2019-03-02T05:25:33.706Z,101474.32
2019-03-02T05:28:03.761Z,101474.32
2019-03-02T05:30:30.601Z,101468.24
2019-03-02T05:32:58.944Z,101461.72
2019-03-02T05:35:26.121Z,101461.72
2019-03-02T05:37:53.452Z,101468.68
2019-03-02T05:40:20.599Z,101463.91
2019-03-02T05:42:51.534Z,101466.11
2019-03-02T05:45:16.945Z,101465.22
2019-03-02T05:47:44.173Z,101466.06
2019-03-02T05:50:11.407Z,101467.83
2019-03-02T05:52:38.627Z,101466.12
2019-03-02T05:55:06.092Z,101466.12
2019-03-02T05:57:33.295Z,101475.27
2019-03-02T06:00:01.880Z,101475.27
2019-03-02T06:02:29.642Z,101485.31
2019-03-02T06:04:57.196Z,101476.16
2019-03-02T06:07:25.354Z,101476.16
2019-03-02T06:09:52.569Z,101473.55
2019-03-02T06:12:19.785Z,101476.57
2019-03-02T06:14:47.130Z,101466.95
2019-03-02T06:17:14.327Z,101468.68
2019-03-02T06:19:41.515Z,101458.69
2019-03-02T06:22:08.802Z,101458.69
2019-03-02T06:24:37.757Z,101461.72
2019-03-02T06:27:07.783Z,101473.06
2019-03-02T06:29:34.248Z,101469.56
2019-03-02T06:32:01.481Z,101472.17
2019-03-02T06:34:28.714Z,101473.47
2019-03-02T06:36:55.924Z,101473.47
2019-03-02T06:39:23.182Z,101469.12
2019-03-02T06:41:50.361Z,101460.87
2019-03-02T06:44:17.608Z,101460.87
2019-03-02T06:46:44.764Z,101472.17
2019-03-02T06:49:11.998Z,101475.20
2019-03-02T06:51:39.243Z,101475.20
2019-03-02T06:54:09.115Z,101462.59
2019-03-02T06:56:35.940Z,101468.65
2019-03-02T06:59:05.007Z,101468.65
2019-03-02T07:01:32.284Z,101460.80
2019-03-02T07:03:59.458Z,101462.95
2019-03-02T07:06:27.307Z,101461.66
2019-03-02T07:08:54.533Z,101468.64
2019-03-02T07:11:21.706Z,101468.64
2019-03-02T07:13:48.931Z,101470.39
2019-03-02T07:16:16.591Z,101471.68
2019-03-02T07:18:50.850Z,101471.68
2019-03-02T07:21:18.102Z,101468.61
2019-03-02T07:23:45.284Z,101468.18
2019-03-02T07:26:15.878Z,101472.11
2019-03-02T07:28:42.254Z,101472.11
2019-03-02T07:31:10.288Z,101470.38
2019-03-02T07:33:37.515Z,101472.92
2019-03-02T07:36:04.715Z,101472.92
2019-03-02T07:38:31.967Z,101470.78
2019-03-02T07:40:59.173Z,101482.97
2019-03-02T07:43:26.443Z,101473.81
2019-03-02T07:45:53.673Z,101470.31
2019-03-02T07:48:20.899Z,101472.93
2019-03-02T07:50:48.166Z,101481.66
2019-03-02T07:53:15.346Z,101482.50
2019-03-02T07:55:42.684Z,101482.50
2019-03-02T07:58:09.917Z,101477.28
2019-03-02T08:00:37.850Z,101477.28
2019-03-02T08:03:06.231Z,101477.25
2019-03-02T08:05:33.476Z,101477.25
2019-03-02T08:08:00.697Z,101467.63
2019-03-02T08:10:27.931Z,101471.10
2019-03-02T08:12:57.817Z,101461.98
2019-03-02T08:15:25.814Z,101461.98
2019-03-02T08:17:53.195Z,101459.33
2019-03-02T08:20:23.892Z,101465.85
2019-03-02T08:22:49.749Z,101463.24
2019-03-02T08:25:16.953Z,101464.97
2019-03-02T08:27:44.155Z,101462.31
2019-03-02T08:30:13.804Z,101462.31
2019-03-02T08:32:40.998Z,101461.36
2019-03-02T08:35:08.836Z,101461.36
2019-03-02T08:37:36.066Z,101460.03
2019-03-02T08:40:03.661Z,101458.25
2019-03-02T08:42:31.018Z,101461.72
2019-03-02T08:44:58.228Z,101461.72
2019-03-02T08:47:25.417Z,101453.40
2019-03-02T08:49:54.730Z,101456.89
2019-03-02T08:52:21.907Z,101454.69
2019-03-02T08:54:49.165Z,101457.31
2019-03-02T08:57:19.569Z,101456.44
2019-03-02T08:59:45.526Z,101449.88
2019-03-02T09:02:12.766Z,101455.56
2019-03-02T09:04:39.945Z,101453.38
2019-03-02T09:07:07.802Z,101458.14
2019-03-02T09:09:36.435Z,101455.52
2019-03-02T09:12:03.799Z,101455.51
2019-03-02T09:14:30.955Z,101455.51
2019-03-02T09:16:58.132Z,101458.52
2019-03-02T09:19:25.368Z,101452.80
2019-03-02T09:21:52.536Z,101453.67
2019-03-02T09:24:19.850Z,101445.34
2019-03-02T09:26:47.031Z,101444.05
2019-03-02T09:29:14.254Z,101448.84
2019-03-02T09:31:42.693Z,101447.07
2019-03-02T09:34:09.887Z,101444.49
2019-03-02T09:36:37.130Z,101437.05
2019-03-02T09:39:06.242Z,101437.05
2019-03-02T09:41:33.407Z,101437.05
2019-03-02T09:44:01.842Z,101437.08
2019-03-02T09:46:29.235Z,101431.00
2019-03-02T09:48:56.884Z,101443.63
2019-03-02T09:51:25.741Z,101431.83
2019-03-02T09:53:52.950Z,101431.83
2019-03-02T09:56:20.166Z,101439.66
2019-03-02T09:58:47.667Z,101431.31
2019-03-02T10:01:14.879Z,101425.60
2019-03-02T10:03:42.052Z,101419.09
2019-03-02T10:06:09.274Z,101419.09
2019-03-02T10:08:36.477Z,101423.42
2019-03-02T10:11:06.151Z,101419.50
2019-03-02T10:13:32.897Z,101422.55
2019-03-02T10:16:00.609Z,101432.61
2019-03-02T10:18:29.234Z,101429.59
2019-03-02T10:20:56.412Z,101426.08
2019-03-02T10:23:23.664Z,101426.48
2019-03-02T10:25:50.905Z,101430.40
2019-03-02T10:28:18.156Z,101424.69
2019-03-02T10:30:45.315Z,101432.53
2019-03-02T10:33:12.547Z,101429.09
2019-03-02T10:35:39.714Z,101428.69
2019-03-02T10:38:06.952Z,101432.14
2019-03-02T10:40:34.141Z,101433.02
2019-03-02T10:43:01.367Z,101430.82
2019-03-02T10:45:28.784Z,101428.19
2019-03-02T10:47:56.084Z,101432.11
2019-03-02T10:50:24.857Z,101422.06
2019-03-02T10:52:52.366Z,101419.45
2019-03-02T10:55:19.768Z,101419.92
2019-03-02T10:57:47.064Z,101422.98
2019-03-02T11:00:19.928Z,101423.47
2019-03-02T11:02:47.122Z,101409.08
2019-03-02T11:05:34.085Z,101412.14
2019-03-02T11:08:25.453Z,101413.39
2019-03-02T11:11:18.106Z,101402.46
2019-03-02T11:14:13.650Z,101392.40
2019-03-02T11:16:59.194Z,101387.97
2019-03-02T11:19:55.048Z,101390.58
2019-03-02T11:22:44.874Z,101391.02
2019-03-02T11:25:25.031Z,101401.95
2019-03-02T11:28:14.462Z,101393.20
2019-03-02T11:30:57.056Z,101386.16
2019-03-02T11:33:42.266Z,101378.28
2019-03-02T11:36:41.167Z,101370.81
2019-03-02T11:39:17.221Z,101369.89
2019-03-02T11:41:56.411Z,101358.87
2019-03-02T11:44:38.037Z,101362.74
2019-03-02T11:47:27.816Z,101378.01
2019-03-02T11:50:17.359Z,101373.55
2019-03-02T11:52:50.507Z,101369.12
2019-03-02T11:55:46.664Z,101357.22
2019-03-02T11:58:42.441Z,101358.44
2019-03-02T12:01:35.477Z,101360.56
2019-03-02T12:04:20.672Z,101360.53
2019-03-02T12:07:06.169Z,101353.98
2019-03-02T12:09:51.731Z,101349.61
2019-03-02T12:12:51.380Z,101346.95
2019-03-02T12:15:39.527Z,101345.14
2019-03-02T12:18:32.221Z,101345.52
2019-03-02T12:21:21.153Z,101332.37
2019-03-02T12:24:15.302Z,101328.39
2019-03-02T12:27:00.786Z,101330.09
2019-03-02T12:30:02.982Z,101323.95
2019-03-02T12:32:52.054Z,101317.80
2019-03-02T12:35:29.270Z,101310.28
2019-03-02T12:38:11.472Z,101310.67
2019-03-02T12:41:16.730Z,101304.12
2019-03-02T12:44:02.151Z,101307.09
2019-03-02T12:46:58.320Z,101301.72
2019-03-02T12:49:47.119Z,101294.37
2019-03-02T12:52:32.781Z,101292.54
2019-03-02T12:55:09.400Z,101286.30
2019-03-02T12:57:48.080Z,101282.73
2019-03-02T13:00:31.252Z,101279.61
2019-03-02T13:03:16.686Z,101283.56
2019-03-02T13:06:09.488Z,101275.64
2019-03-02T13:08:50.592Z,101279.47
2019-03-02T13:11:33.290Z,101276.39
2019-03-02T13:14:17.633Z,101276.39
2019-03-02T13:17:03.753Z,101270.59
2019-03-02T13:19:53.665Z,101265.30
2019-03-02T13:22:35.443Z,101262.18
2019-03-02T13:25:20.757Z,101256.52
2019-03-02T13:28:07.948Z,101252.72
2019-03-02T13:30:42.505Z,101254.05
2019-03-02T13:33:35.744Z,101250.11
2019-03-02T13:36:35.144Z,101248.28
2019-03-02T13:39:15.500Z,101245.94
2019-03-02T13:41:55.836Z,101242.30
2019-03-02T13:44:54.587Z,101245.88
2019-03-02T13:47:30.737Z,101238.50
2019-03-02T13:50:17.496Z,101231.94
2019-03-02T13:53:10.360Z,101234.97
2019-03-02T13:55:45.944Z,101231.89
2019-03-02T13:58:33.891Z,101222.61
2019-03-02T14:01:21.240Z,101219.05
2019-03-02T14:03:59.015Z,101218.23
2019-03-02T14:06:44.221Z,101215.25
2019-03-02T14:09:21.896Z,101207.45
2019-03-02T14:12:07.700Z,101211.91
2019-03-02T14:14:54.437Z,101209.39
2019-03-02T14:17:42.871Z,101211.30
2019-03-02T14:20:44.409Z,101205.69
2019-03-02T14:23:32.226Z,101212.30
2019-03-02T14:26:05.531Z,101208.46
2019-03-02T14:28:41.496Z,101201.95
2019-03-02T14:31:20.398Z,101195.05
2019-03-02T14:34:08.635Z,101198.23
2019-03-02T14:36:46.924Z,101197.90
2019-03-02T14:39:24.795Z,101200.22
2019-03-02T14:42:17.499Z,101198.52
2019-03-02T14:45:13.252Z,101194.62
2019-03-02T14:48:13.254Z,101187.29
2019-03-02T14:50:53.853Z,101188.64
2019-03-02T14:53:52.931Z,101186.13
2019-03-02T14:56:29.416Z,101181.77
2019-03-02T14:59:16.152Z,101183.13
2019-03-02T15:02:01.567Z,101181.86
2019-03-02T15:04:57.455Z,101188.03
2019-03-02T15:07:59.000Z,101176.69
2019-03-02T15:10:48.307Z,101180.23
2019-03-02T15:13:47.187Z,101179.41
2019-03-02T15:16:51.950Z,101173.33
2019-03-02T15:19:39.587Z,101166.83
2019-03-02T15:22:20.514Z,101173.38
2019-03-02T15:25:08.842Z,101171.21
2019-03-02T15:27:56.370Z,101169.53
2019-03-02T15:30:44.474Z,101165.59
2019-03-02T15:33:37.536Z,101158.22
2019-03-02T15:36:34.826Z,101154.70
2019-03-02T15:39:20.642Z,101146.41
2019-03-02T15:41:59.710Z,101139.84
2019-03-02T15:44:58.585Z,101130.59
2019-03-02T15:47:50.770Z,101130.62
2019-03-02T15:50:23.018Z,101137.66
2019-03-02T15:53:01.406Z,101138.97
2019-03-02T15:55:56.334Z,101128.90
2019-03-02T15:58:41.855Z,101131.48
2019-03-02T16:01:34.837Z,101122.67
2019-03-02T16:04:22.488Z,101112.56
2019-03-02T16:07:07.816Z,101113.00
2019-03-02T16:10:00.804Z,101109.55
2019-03-02T16:13:07.406Z,101105.26
2019-03-02T16:15:49.006Z,101102.69
2019-03-02T16:18:38.533Z,101099.67
2019-03-02T16:21:24.183Z,101101.00
2019-03-02T16:24:10.830Z,101102.80
2019-03-02T16:26:57.659Z,101094.53
2019-03-02T16:29:42.935Z,101094.94
2019-03-02T16:32:32.832Z,101092.32
2019-03-02T16:35:25.835Z,101091.47
2019-03-02T16:38:18.675Z,101090.20
2019-03-02T16:41:17.740Z,101082.34
2019-03-02T16:44:03.141Z,101085.81
2019-03-02T16:46:49.692Z,101087.03
2019-03-02T16:49:32.163Z,101077.88
2019-03-02T16:52:17.592Z,101072.25
2019-03-02T16:55:05.975Z,101078.83
2019-03-02T16:57:41.356Z,101072.70
2019-03-02T17:00:17.874Z,101068.38
2019-03-02T17:02:54.013Z,101070.09
2019-03-02T17:05:39.796Z,101063.21
2019-03-02T17:08:45.656Z,101057.53
2019-03-02T17:11:23.386Z,101048.84
2019-03-02T17:14:10.234Z,101037.61
2019-03-02T17:16:55.531Z,101049.78
2019-03-02T17:19:41.434Z,101049.78
2019-03-02T17:22:33.978Z,101052.00
2019-03-02T17:25:16.203Z,101049.01
2019-03-02T17:27:58.364Z,101057.73
2019-03-02T17:30:36.078Z,101059.09
2019-03-02T17:33:32.432Z,101065.26
2019-03-02T17:36:15.546Z,101070.05
2019-03-02T17:39:06.961Z,101079.20
2019-03-02T17:41:55.031Z,101083.16
2019-03-02T17:44:34.034Z,101084.47
2019-03-02T17:47:22.958Z,101084.47
2019-03-02T17:50:09.987Z,101078.41
2019-03-02T17:53:04.248Z,101073.62
2019-03-02T17:55:40.143Z,101064.94
2019-03-02T17:58:28.083Z,101056.20
2019-03-02T18:01:28.730Z,101056.20
2019-03-02T18:04:09.548Z,101054.48
2019-03-02T18:06:55.797Z,101054.48
2019-03-02T18:09:31.756Z,101056.66
2019-03-02T18:12:23.435Z,101059.73
2019-03-02T18:15:12.987Z,101059.73
2019-03-02T18:17:55.453Z,101050.16
2019-03-02T18:20:23.268Z,101050.16
2019-03-02T18:22:50.342Z,101044.50
2019-03-02T18:25:17.535Z,101042.83
2019-03-02T18:27:44.776Z,101042.83
2019-03-02T18:30:14.249Z,101043.20
2019-03-02T18:32:41.513Z,101036.25
2019-03-02T18:35:08.672Z,101032.23
2019-03-02T18:37:35.869Z,101032.72
2019-03-02T18:40:04.083Z,101019.76
2019-03-02T18:42:31.861Z,101019.76
2019-03-02T18:45:02.692Z,101023.18
2019-03-02T18:47:30.002Z,101031.02
2019-03-02T18:50:10.092Z,101031.02
2019-03-02T18:52:57.066Z,101027.09
2019-03-02T18:55:25.855Z,101005.30
2019-03-02T18:57:54.158Z,101005.30
2019-03-02T19:00:25.198Z,101014.79
2019-03-02T19:02:52.370Z,101018.31
2019-03-02T19:05:28.402Z,101016.13
2019-03-02T19:07:56.972Z,101013.46
2019-03-02T19:10:24.197Z,101002.18
2019-03-02T19:12:51.414Z,101002.18
2019-03-02T19:15:18.649Z,100993.02
2019-03-02T19:17:46.010Z,100993.02
2019-03-02T19:20:13.226Z,100983.84
2019-03-02T19:22:40.599Z,100972.53
2019-03-02T19:25:07.844Z,100972.53
2019-03-02T19:27:35.037Z,100957.31
2019-03-02T19:30:02.269Z,100957.31
2019-03-02T19:32:29.498Z,100962.42
2019-03-02T19:34:56.747Z,100948.98
2019-03-02T19:37:23.963Z,100948.98
2019-03-02T19:39:51.163Z,100948.98
2019-03-02T19:42:18.369Z,100942.41
2019-03-02T19:44:45.617Z,100942.41
2019-03-02T19:47:12.794Z,100940.72
2019-03-02T19:49:39.977Z,100938.95
2019-03-02T19:52:07.239Z,100926.72
2019-03-02T19:54:34.412Z,100918.45
2019-03-02T19:57:01.623Z,100921.95
2019-03-02T19:59:28.801Z,100911.88
2019-03-02T20:01:55.974Z,100909.70
2019-03-02T20:04:23.216Z,100905.84
2019-03-02T20:06:50.446Z,100899.30
2019-03-02T20:09:17.664Z,100890.14
2019-03-02T20:11:44.884Z,100899.30
2019-03-02T20:14:12.079Z,100896.69
2019-03-02T20:16:39.277Z,100894.98
2019-03-02T20:19:06.519Z,100887.08
2019-03-02T20:21:33.922Z,100887.08
2019-03-02T20:24:01.122Z,100878.38
2019-03-02T20:26:28.358Z,100884.05
2019-03-02T20:28:55.551Z,100874.45
2019-03-02T20:31:22.830Z,100874.45
2019-03-02T20:33:50.020Z,100872.27
2019-03-02T20:36:17.198Z,100861.02
2019-03-02T20:38:44.454Z,100848.88
2019-03-02T20:41:11.668Z,100848.88
2019-03-02T20:43:38.887Z,100844.41
2019-03-02T20:46:06.107Z,100843.48
2019-03-02T20:48:33.395Z,100835.70
2019-03-02T20:51:00.582Z,100833.11
2019-03-02T20:53:27.767Z,100834.47
2019-03-02T20:55:54.973Z,100828.80
2019-03-02T20:58:22.179Z,100827.52
2019-03-02T21:00:49.412Z,100819.25
2019-03-02T21:03:16.652Z,100810.11
2019-03-02T21:05:43.861Z,100817.50
2019-03-02T21:08:11.052Z,100811.02
2019-03-02T21:10:38.248Z,100797.61
2019-03-02T21:13:05.444Z,100797.61
2019-03-02T21:15:34.333Z,100784.19
2019-03-02T21:18:01.868Z,100789.42
2019-03-02T21:20:29.055Z,100785.50
2019-03-02T21:22:56.323Z,100784.14
2019-03-02T21:25:23.577Z,100778.52
2019-03-02T21:27:50.795Z,100778.52
2019-03-02T21:30:18.083Z,100777.59
2019-03-02T21:32:45.284Z,100763.74
2019-03-02T21:35:12.490Z,100763.74
2019-03-02T21:37:39.742Z,100761.12
2019-03-02T21:40:10.444Z,100757.22
2019-03-02T21:42:37.691Z,100757.22
2019-03-02T21:45:06.219Z,100751.96
2019-03-02T21:47:33.431Z,100753.70
2019-03-02T21:50:00.672Z,100752.37
2019-03-02T21:52:27.883Z,100744.55
2019-03-02T21:54:55.095Z,100743.21
2019-03-02T21:57:22.311Z,100735.71
2019-03-02T21:59:49.503Z,100734.92
2019-03-02T22:02:16.748Z,100731.43
2019-03-02T22:04:43.946Z,100724.01
2019-03-02T22:07:11.131Z,100724.01
2019-03-02T22:09:38.359Z,100714.00
2019-03-02T22:12:05.553Z,100710.54
2019-03-02T22:14:32.798Z,100710.54
2019-03-02T22:17:01.894Z,100700.39
2019-03-02T22:19:29.073Z,100700.39
2019-03-02T22:21:56.414Z,100713.89
2019-03-02T22:24:23.700Z,100705.14
2019-03-02T22:26:50.887Z,100705.14
2019-03-02T22:29:18.118Z,100687.39
2019-03-02T22:31:45.354Z,100687.39
2019-03-02T22:34:12.594Z,100691.23
2019-03-02T22:36:39.826Z,100693.83
2019-03-02T22:39:07.050Z,100685.97
2019-03-02T22:41:34.257Z,100685.97
2019-03-02T22:44:01.481Z,100679.43
2019-03-02T22:46:28.706Z,100679.43
2019-03-02T22:48:55.906Z,100672.02
2019-03-02T22:51:23.143Z,100669.39
2019-03-02T22:53:50.419Z,100669.39
2019-03-02T22:56:17.595Z,100667.65
2019-03-02T22:58:44.416Z,100660.75
2019-03-02T23:01:45.554Z,100660.75
2019-03-02T23:04:12.894Z,100652.95
2019-03-02T23:06:40.156Z,100666.34
2019-03-02T23:09:09.354Z,100656.70
2019-03-02T23:11:36.580Z,100656.70
2019-03-02T23:14:03.836Z,100664.13
2019-03-02T23:16:31.015Z,100658.45
2019-03-02T23:18:58.264Z,100660.61
2019-03-02T23:21:25.469Z,100645.02
2019-03-02T23:23:52.749Z,100644.50
2019-03-02T23:26:19.981Z,100644.50
2019-03-02T23:28:47.229Z,100643.19
2019-03-02T23:31:14.948Z,100640.19
2019-03-02T23:33:42.167Z,100640.19
2019-03-02T23:36:09.387Z,100633.67
2019-03-02T23:38:36.602Z,100637.95
2019-03-02T23:41:03.892Z,100641.44
2019-03-02T23:43:31.029Z,100633.50
2019-03-02T23:45:58.267Z,100620.61
2019-03-02T23:48:25.472Z,100620.61
2019-03-02T23:50:52.691Z,100632.72
2019-03-02T23:53:19.883Z,100634.43
2019-03-02T23:55:47.180Z,100643.16
2019-03-02T23:58:14.419Z,100635.83
